Date,TemperatureHighF,TemperatureAvgF,TemperatureLowF,DewpointHighF,DewpointAvgF,DewpointLowF,HumidityHigh,HumidityAvg,HumidityLow,PressureMaxIn,PressureMinIn,WindSpeedMaxMPH,WindSpeedAvgMPH,GustSpeedMaxMPH,PrecipitationSumIn
2013-1-10,63.0,63.0,63.0,50.0,50.0,50.0,65,65,65,30.32,30.21,10,4,13,0.00
2013-1-11,63.0,63.0,63.0,50.0,50.0,50.0,65,65,65,30.29,30.15,8,2,12,0.00
2013-1-12,63.0,63.0,63.0,50.0,50.0,50.0,65,65,65,30.24,30.09,8,2,9,0.00
2013-1-13,63.0,63.0,63.0,50.0,50.0,50.0,65,65,65,30.21,30.06,7,2,9,0.00
2013-1-14,63.0,63.0,63.0,50.0,50.0,50.0,65,65,65,30.21,30.15,7,1,8,0.00
2013-1-15,63.0,63.0,63.0,50.0,50.0,50.0,65,65,65,30.18,30.09,7,1,8,0.00
2013-1-16,63.0,63.0,63.0,50.0,50.0,50.0,65,65,65,30.15,30.03,6,1,8,0.00
2013-1-17,63.0,63.0,63.0,50.0,50.0,50.0,65,65,65,30.18,30.03,10,3,12,0.12
2013-1-18,63.0,63.0,63.0,50.0,50.0,50.0,65,65,65,30.32,30.18,8,4,13,0.00
2013-1-19,63.0,63.0,63.0,50.0,50.0,50.0,65,65,65,30.29,30.15,8,4,11,0.00
2013-1-20,63.0,63.0,63.0,50.0,50.0,50.0,65,65,65,30.21,30.06,6,2,8,0.00
2013-1-21,63.0,63.0,63.0,50.0,50.0,50.0,65,65,65,30.15,30.06,6,2,8,0.00
2013-1-22,63.0,63.0,63.0,50.0,50.0,50.0,65,65,65,30.32,30.12,7,2,11,0.00
2013-1-23,63.0,63.0,63.0,50.0,50.0,50.0,65,65,65,30.38,30.29,6,2,10,0.00
2013-1-24,63.0,63.0,63.0,50.0,50.0,50.0,65,65,65,30.35,30.27,7,2,8,0.00
2013-1-25,63.0,63.0,63.0,50.0,50.0,50.0,65,65,65,30.32,30.24,5,1,6,0.00
2013-1-26,76.8,60.8,41.3,55.9,47.3,-99.9,95,68,38,30.29,30.12,6,1,10,0.00
2013-1-27,84.0,65.2,50.7,62.8,53.3,48.6,98,71,35,30.27,30.18,7,2,8,0.17
2013-1-28,86.7,71.2,61.3,65.3,61.1,56.6,97,74,40,30.30,30.18,9,2,11,1.52
2013-1-29,89.4,72.0,61.5,68.3,64.2,60.3,98,79,42,30.21,30.04,7,3,13,0.00
2013-1-30,82.4,72.9,66.6,67.6,65.8,63.8,93,80,55,30.06,29.86,10,5,15,0.00
2013-1-31,70.5,57.7,42.6,67.4,43.3,30.4,97,62,36,30.21,29.89,12,4,14,0.08
2013-2-1,73.0,54.9,42.3,41.2,33.1,-6.4,85,50,4,30.33,30.18,7,2,11,0.00
2013-2-2,79.7,57.4,44.2,45.3,40.3,33.5,92,57,20,30.30,30.12,7,2,8,0.00
2013-2-3,73.2,54.9,39.9,54.1,46.4,38.6,98,77,45,30.18,30.06,8,2,8,0.00
2013-2-4,79.3,55.3,41.5,55.8,41.9,31.2,98,69,21,30.12,30.01,7,1,8,0.00
2013-2-5,82.6,60.8,41.3,54.5,47.7,31.5,96,67,34,30.06,29.95,6,1,10,1.77
2013-2-6,86.9,69.1,57.9,63.3,58.5,53.4,94,72,40,30.09,29.98,6,2,8,1.77
2013-2-7,83.5,70.2,62.4,67.8,63.4,58.7,97,81,45,30.04,29.83,9,3,13,0.12
2013-2-8,80.1,67.2,56.5,66.9,61.0,55.4,97,82,49,30.06,29.86,8,3,10,0.00
2013-2-9,81.9,65.4,54.3,56.9,53.7,47.4,98,70,35,30.18,30.04,7,3,9,0.00
2013-2-10,83.3,70.0,41.3,62.3,58.6,31.5,89,69,38,30.21,29.97,10,4,13,0.00
2013-2-11,86.0,71.6,62.8,66.8,63.6,60.0,94,78,49,30.18,30.04,7,3,11,0.00
2013-2-12,84.2,72.8,67.1,70.8,68.5,66.0,97,87,63,30.06,29.92,10,3,12,0.00
2013-2-13,83.7,71.2,60.3,73.0,67.8,55.4,98,90,68,29.98,29.83,9,3,10,0.21
2013-2-14,65.7,61.6,59.4,62.2,59.5,54.8,98,93,78,30.04,29.89,7,2,7,0.41
2013-2-15,73.4,60.7,54.9,59.0,54.1,48.2,98,81,43,30.06,29.95,6,2,6,0.00
2013-2-16,74.1,58.3,49.6,54.4,45.2,33.1,94,64,40,30.12,29.92,11,4,21,0.00
2013-2-17,56.8,47.9,35.6,33.3,25.0,18.3,70,41,28,30.33,30.12,11,4,13,0.00
2013-2-18,74.1,52.8,34.5,48.2,36.1,26.5,84,57,29,30.33,30.18,9,2,13,0.00
2013-2-19,82.9,65.6,49.6,62.2,54.7,45.7,95,71,42,30.21,30.06,9,2,11,0.00
2013-2-20,86.0,67.0,59.2,64.9,60.2,54.0,98,81,44,30.09,30.01,6,2,10,0.00
2013-2-21,90.3,69.6,58.1,65.2,61.1,54.8,97,77,42,30.09,29.95,7,2,8,0.00
2013-2-22,88.7,72.5,60.8,69.6,65.9,59.9,98,82,49,30.04,29.95,7,2,11,0.00
2013-2-23,85.8,73.3,68.2,72.7,69.7,67.3,97,89,64,30.01,29.89,8,3,10,0.00
2013-2-24,86.5,72.6,67.6,73.1,68.7,66.8,98,89,58,29.95,29.83,6,1,6,0.00
2013-2-25,87.4,75.1,67.3,71.8,69.2,66.4,98,83,55,29.89,29.74,6,3,7,0.00
2013-2-26,81.3,71.8,64.6,72.2,67.3,61.3,97,86,63,29.86,29.65,8,2,15,0.18
2013-2-27,79.0,65.3,57.7,61.9,55.6,49.5,95,73,43,29.98,29.83,7,2,10,0.00
2013-2-28,79.0,63.5,52.2,61.2,51.4,46.7,98,68,40,30.01,29.89,7,2,8,0.00
2013-3-1,67.5,58.4,53.2,47.4,41.7,35.2,75,55,44,30.04,29.89,10,3,11,0.00
2013-3-2,61.7,54.8,46.8,42.6,37.0,33.7,78,51,42,30.06,29.95,10,4,13,0.00
2013-3-3,58.5,49.8,43.2,37.2,32.0,26.0,55,50,45,30.15,29.98,10,4,10,0.00
2013-3-4,72.3,54.0,38.7,41.6,34.6,27.5,81,50,33,30.21,30.12,6,2,9,0.00
2013-3-5,81.7,60.5,39.6,63.0,50.3,31.5,97,73,38,30.15,29.97,8,2,10,2.69
2013-3-6,66.6,60.0,54.0,64.4,45.1,36.1,97,60,38,30.15,29.95,13,5,17,0.00
2013-3-7,70.3,53.5,42.4,40.8,35.8,28.4,89,54,32,30.21,30.12,8,3,10,0.00
2013-3-8,79.0,56.7,40.3,51.9,42.6,38.9,98,66,30,30.24,30.12,8,2,9,0.00
2013-3-9,81.5,62.5,45.9,52.8,45.8,43.0,97,59,28,30.21,30.09,8,2,10,2.69
2013-3-10,84.9,67.9,57.7,56.6,53.1,49.3,88,62,35,30.15,30.01,10,3,16,0.00
2013-3-11,83.3,69.8,58.1,62.5,57.7,53.5,91,68,41,30.09,29.86,10,3,11,0.00
2013-3-12,69.3,64.3,55.9,67.3,58.7,49.8,98,83,56,30.04,29.83,7,3,13,0.32
2013-3-13,73.6,62.0,54.5,51.9,42.8,27.6,82,53,19,30.18,30.01,9,4,13,0.00
2013-3-14,67.5,57.8,50.4,50.9,35.2,8.2,81,46,10,30.30,30.15,9,4,11,0.00
2013-3-15,78.4,57.4,40.1,50.7,38.0,15.7,97,56,11,30.27,30.15,6,2,9,0.00
2013-3-16,84.0,60.7,43.9,58.4,48.4,42.1,98,71,29,30.18,30.06,5,1,12,0.00
2013-3-17,83.7,64.5,49.8,60.4,55.0,48.7,98,75,41,30.12,29.95,6,1,10,0.00
2013-3-18,74.8,67.7,41.3,67.7,62.4,31.5,95,83,38,30.04,29.86,6,2,10,0.00
2013-3-19,92.7,72.0,61.7,68.8,62.9,59.5,98,77,39,30.01,29.89,5,1,5,3.01
2013-3-20,76.1,66.8,58.3,66.5,62.3,57.1,98,87,63,29.95,29.77,7,2,10,0.18
2013-3-21,73.6,59.2,45.9,57.9,42.3,29.2,98,61,22,29.98,29.86,8,2,11,0.00
2013-3-22,81.3,62.3,43.7,67.0,51.6,41.2,97,73,34,30.01,29.86,7,2,9,3.30
2013-3-23,87.4,73.2,65.7,74.4,69.0,64.8,98,88,61,29.95,29.77,8,3,9,0.00
2013-3-24,82.9,72.8,66.9,72.8,70.2,65.1,97,92,71,29.83,29.62,6,3,10,0.00
2013-3-25,67.8,62.7,53.6,66.2,47.7,35.2,97,61,35,30.04,29.71,11,4,18,0.00
2013-3-26,60.4,55.0,41.3,43.5,34.6,30.6,59,46,38,30.24,29.97,11,5,15,3.30
2013-3-27,62.4,51.0,41.5,36.5,32.7,27.5,79,51,36,30.36,30.18,8,3,11,0.00
2013-3-28,77.4,53.8,39.4,46.2,33.7,-12.9,97,58,3,30.30,30.18,6,2,9,3.30
2013-3-29,84.6,62.2,45.1,45.1,35.9,-14.1,92,51,2,30.30,30.18,6,2,9,0.00
2013-3-30,83.7,63.7,47.8,54.5,50.4,44.6,95,67,34,30.24,30.12,7,1,8,0.00
2013-3-31,87.1,68.1,54.0,62.3,56.2,52.3,97,70,35,30.15,29.98,6,2,8,0.00
2013-4-1,89.2,74.1,65.1,70.0,65.3,61.1,96,76,46,30.06,29.95,4,2,7,0.00
2013-4-2,93.2,72.1,61.2,67.8,61.5,56.0,98,74,37,30.09,29.98,4,1,6,0.00
2013-4-3,93.4,73.4,61.9,69.1,64.9,60.5,98,78,39,30.06,29.92,7,2,10,3.34
2013-4-4,75.7,69.8,41.3,69.7,66.7,31.5,97,90,38,30.04,29.83,7,2,9,0.74
2013-4-5,77.7,68.2,41.3,68.0,58.7,31.5,95,73,38,29.98,29.83,9,4,15,0.00
2013-4-6,82.8,66.2,56.3,59.3,54.3,50.0,92,68,38,30.09,29.95,8,4,13,0.00
2013-4-7,91.6,71.6,59.5,63.5,57.4,53.1,97,65,31,30.15,30.01,7,2,10,0.00
2013-4-8,94.3,75.7,64.9,62.8,59.3,54.4,89,61,28,30.09,30.01,8,3,11,0.00
2013-4-9,90.0,75.4,61.9,66.8,62.2,58.9,97,67,39,30.15,30.04,9,3,13,0.00
2013-4-10,97.2,77.8,41.3,67.2,63.5,31.5,95,65,35,30.12,29.95,8,3,9,4.17
2013-4-11,97.0,79.6,71.2,72.8,69.8,64.9,94,75,40,29.98,29.80,9,4,14,0.00
2013-4-12,80.4,75.9,71.2,75.0,72.6,68.5,93,89,83,29.92,29.77,9,3,15,0.00
2013-4-13,95.2,77.5,67.1,70.9,66.2,62.5,97,72,38,29.98,29.83,5,2,6,0.00
2013-4-14,89.4,76.3,68.4,74.6,68.3,58.8,93,77,56,29.98,29.83,11,4,14,0.00
2013-4-15,101.3,79.5,67.1,69.3,64.3,58.6,86,63,36,30.04,29.92,6,2,9,0.00
2013-4-16,99.1,81.2,66.9,72.0,67.1,61.3,97,66,35,30.09,30.01,9,3,14,0.00
2013-4-17,93.6,80.1,68.7,68.9,63.4,55.8,93,61,32,30.12,29.98,9,4,12,0.00
2013-4-18,100.8,80.2,69.4,72.1,67.1,62.2,91,68,36,30.04,29.92,9,3,12,0.00
2013-4-19,93.7,80.7,72.5,74.5,71.3,65.1,94,76,41,29.98,29.89,9,3,18,0.00
2013-4-20,81.0,71.0,62.6,73.2,63.3,58.2,93,78,51,30.12,29.95,7,4,10,0.00
2013-4-21,88.7,71.9,61.0,69.6,63.6,58.3,95,78,47,30.12,30.01,7,4,10,0.04
2013-4-22,88.2,74.4,67.6,69.9,66.4,61.5,97,79,44,30.06,29.95,8,3,10,0.00
2013-4-23,92.7,75.5,66.4,65.4,62.7,56.1,90,67,36,30.09,29.98,8,4,11,0.00
2013-4-24,97.2,76.0,63.7,66.5,61.6,56.5,93,66,28,30.12,30.06,7,3,9,0.00
2013-4-25,95.5,76.6,62.6,69.3,64.3,60.6,97,70,37,30.18,30.06,6,2,8,0.00
2013-4-26,97.3,78.4,64.0,69.2,64.8,61.7,95,67,34,30.21,30.12,7,2,8,0.00
2013-4-27,96.8,78.7,69.1,69.8,65.2,59.2,95,66,32,30.21,30.06,9,4,11,0.00
2013-4-28,97.7,79.4,68.9,68.1,63.8,57.8,83,62,33,30.12,29.95,9,3,10,0.00
2013-4-29,91.4,77.9,68.7,70.6,66.6,61.6,90,70,42,30.01,29.89,8,2,8,0.00
2013-4-30,103.3,80.3,68.7,71.5,68.2,64.2,97,71,31,30.01,29.89,6,2,8,0.55
2013-5-1,75.0,71.2,67.1,73.0,69.1,65.9,97,93,85,29.98,29.89,7,3,9,1.16
2013-5-2,93.4,74.0,66.4,72.9,67.7,65.2,97,82,45,29.95,29.77,8,2,10,0.00
2013-5-3,94.3,77.4,68.0,72.8,67.6,63.6,97,75,40,29.83,29.71,8,2,11,0.38
2013-5-4,87.1,74.2,64.8,69.9,66.2,63.4,97,78,50,29.80,29.68,6,2,10,0.00
2013-5-5,81.0,70.3,63.3,66.7,54.4,47.3,96,61,35,29.95,29.77,10,4,14,0.00
2013-5-6,82.6,70.6,59.2,63.5,55.5,49.4,86,61,39,30.01,29.89,7,2,11,0.00
2013-5-7,87.3,70.9,56.8,61.9,57.1,53.6,92,66,37,30.04,29.95,6,1,6,0.00
2013-5-8,90.5,72.6,58.3,67.9,59.4,55.6,98,68,36,30.12,30.01,5,1,5,0.00
2013-5-9,93.9,74.3,60.4,70.5,62.1,57.4,98,70,36,30.15,30.06,5,1,7,0.00
2013-5-10,100.6,78.7,62.6,70.9,65.2,61.4,98,69,31,30.12,29.98,7,1,9,0.00
2013-5-11,96.6,80.7,71.8,75.9,71.9,67.4,96,77,45,30.06,29.95,6,2,7,0.00
2013-5-12,97.7,79.6,69.3,77.4,68.8,65.2,97,73,40,30.06,29.95,6,1,10,0.00
2013-5-13,89.1,74.4,64.2,71.5,57.9,44.8,96,62,30,30.12,29.98,8,2,12,0.00
2013-5-14,91.4,73.7,58.3,59.2,44.7,-1.9,70,40,3,30.21,30.09,8,3,13,0.00
2013-5-15,96.6,76.0,59.9,63.9,56.8,52.4,92,55,24,30.21,30.06,8,2,9,0.00
2013-5-16,97.0,78.9,65.1,66.9,62.1,58.0,89,60,30,30.12,29.95,5,2,7,0.00
2013-5-17,98.2,80.4,67.6,67.8,64.6,58.8,89,62,36,30.09,30.01,5,2,7,0.00
2013-5-18,99.9,82.1,69.6,73.9,67.3,58.8,95,65,30,30.09,30.01,5,2,8,0.00
2013-5-19,99.9,82.0,68.2,75.3,66.4,60.4,97,65,32,30.09,29.95,6,1,8,0.00
2013-5-20,101.5,81.8,70.9,72.4,68.2,59.2,93,67,37,30.06,29.95,8,2,12,0.00
2013-5-21,100.4,80.2,68.9,73.1,68.6,62.2,97,72,37,30.04,29.89,7,2,12,0.04
2013-5-22,99.5,81.5,71.4,73.2,69.4,64.3,91,71,37,29.98,29.86,7,2,8,0.00
2013-5-23,96.8,80.9,69.4,75.2,69.8,66.5,97,73,40,30.01,29.89,8,2,10,0.00
2013-5-24,97.3,81.8,69.8,75.2,68.7,59.9,97,69,36,30.06,29.95,8,2,11,0.00
2013-5-25,99.3,83.8,73.0,70.7,62.7,54.9,85,53,27,30.15,30.04,10,4,15,0.00
2013-5-26,96.1,80.4,67.1,62.8,56.5,47.2,82,48,21,30.21,30.06,8,4,12,0.00
2013-5-27,97.2,80.8,66.6,67.0,61.2,55.9,89,55,29,30.18,30.01,11,4,15,0.00
2013-5-28,96.4,80.4,71.6,73.7,69.4,64.6,90,72,38,30.12,30.01,11,5,15,0.00
2013-5-29,93.9,80.4,73.0,73.4,69.7,63.8,93,72,43,30.06,30.01,14,6,14,0.00
2013-5-30,93.4,81.8,74.8,73.4,69.9,65.1,91,70,43,30.06,29.95,14,6,15,0.00
2013-5-31,93.2,80.2,73.9,77.2,70.9,68.0,92,74,46,30.06,29.95,9,5,12,0.33
2013-6-1,96.4,80.7,73.4,77.5,72.9,70.6,97,79,49,30.04,29.92,7,3,11,1.86
2013-6-2,102.2,83.8,72.3,78.5,73.3,70.6,97,75,38,29.98,29.89,6,2,8,0.04
2013-6-3,97.7,82.4,73.9,78.0,73.9,71.7,96,77,47,29.98,29.89,6,2,7,0.00
2013-6-4,94.3,82.3,75.6,76.1,72.7,69.4,91,74,49,30.01,29.92,6,2,9,0.00
2013-6-5,89.8,79.4,73.6,74.5,72.4,69.3,95,80,53,29.98,29.86,7,3,8,0.16
2013-6-6,86.0,76.9,73.2,77.2,73.2,70.7,97,89,67,29.86,29.62,9,4,16,4.65
2013-6-7,96.8,82.7,41.3,76.9,72.5,31.5,96,74,38,29.97,29.77,5,1,5,13.43
2013-6-8,99.7,82.3,71.8,77.0,73.6,70.9,97,78,44,30.09,29.95,11,2,13,0.96
2013-6-9,101.5,82.6,71.8,77.8,72.9,65.6,97,76,40,30.09,29.98,7,2,8,0.00
2013-6-10,102.4,85.0,75.2,77.5,73.3,68.6,94,71,38,30.06,29.98,5,2,7,0.00
2013-6-11,98.2,83.0,73.8,78.8,74.6,70.6,94,78,47,30.09,30.01,6,1,8,0.25
2013-6-12,103.5,84.2,72.3,82.0,72.5,69.3,96,71,39,30.06,29.98,6,2,8,0.38
2013-6-13,101.5,85.0,73.8,79.7,72.7,67.2,96,71,38,30.06,29.89,7,1,7,0.00
2013-6-14,100.9,85.0,76.6,75.7,73.0,69.4,88,70,39,29.95,29.83,5,1,10,0.00
2013-6-15,100.8,85.4,76.6,78.1,75.3,72.3,93,74,45,30.04,29.89,6,2,7,0.00
2013-6-16,102.0,86.8,77.9,79.5,75.7,73.0,92,72,45,30.06,29.98,7,2,7,0.00
2013-6-17,104.5,88.4,75.4,79.7,73.7,68.8,94,66,36,30.06,29.95,4,1,6,0.00
2013-6-18,103.8,87.4,74.3,79.4,73.7,69.5,95,68,37,30.04,29.95,3,1,6,0.00
2013-6-19,105.4,88.2,77.5,80.5,74.5,67.9,94,68,37,30.04,29.95,5,1,8,0.00
2013-6-20,102.4,85.5,75.6,81.3,73.0,65.2,95,70,39,30.09,29.98,6,2,10,0.12
2013-6-21,100.4,83.4,73.0,76.5,71.4,66.4,95,71,40,30.09,30.01,7,1,8,0.25
2013-6-22,106.7,85.0,72.1,76.9,70.4,63.9,96,68,31,30.12,30.01,8,1,8,0.08
2013-6-23,104.0,83.7,73.4,76.9,72.9,67.6,95,75,35,30.12,30.04,10,2,10,0.66
2013-6-24,102.2,85.3,74.8,76.5,72.6,64.9,95,70,34,30.18,30.04,7,3,9,0.30
2013-6-25,104.9,85.4,73.4,77.7,72.4,65.2,96,70,32,30.15,30.01,10,2,13,0.08
2013-6-26,102.6,83.3,73.9,79.0,74.0,70.7,96,78,40,30.06,29.98,12,1,15,0.66
2013-6-27,104.0,85.9,72.3,79.9,73.3,66.8,96,71,38,30.04,29.92,5,1,6,0.00
2013-6-28,101.3,87.1,75.2,77.6,74.3,71.4,93,69,42,29.98,29.83,4,1,7,0.00
2013-6-29,90.7,82.0,77.5,79.2,74.4,70.5,89,78,61,29.86,29.77,6,1,8,0.09
2013-6-30,99.9,85.6,75.4,79.2,74.9,68.6,93,72,47,29.86,29.77,5,2,9,0.25
2013-7-1,81.3,75.9,71.8,77.4,73.7,70.3,97,93,81,29.98,29.80,6,2,13,2.55
2013-7-2,99.5,81.3,72.7,79.0,73.2,70.4,97,79,44,30.06,29.92,13,3,15,1.36
2013-7-3,98.2,78.8,71.6,80.2,73.6,69.8,97,86,47,30.09,30.01,9,3,9,3.05
2013-7-4,103.5,80.2,73.0,76.5,73.2,69.7,96,82,40,30.15,30.04,8,3,9,0.53
2013-7-5,95.9,78.2,41.3,79.7,73.6,31.5,97,87,38,30.12,29.97,11,2,11,1.10
2013-7-6,100.8,83.7,73.0,77.2,73.5,65.7,97,75,38,30.09,30.01,9,3,13,0.00
2013-7-7,100.6,84.1,74.3,77.0,73.4,67.7,96,74,38,30.09,30.01,10,3,11,0.50
2013-7-8,102.7,84.2,74.3,78.1,73.2,67.0,97,74,35,30.15,30.04,6,2,8,0.00
2013-7-9,103.1,84.9,73.2,77.4,72.3,65.9,95,71,34,30.18,30.01,12,2,20,0.00
2013-7-10,100.6,84.0,72.7,76.6,71.7,66.0,95,71,36,30.06,29.95,6,2,7,0.17
2013-7-11,97.5,82.6,73.6,80.5,74.0,70.6,96,78,44,30.01,29.89,4,1,8,0.08
2013-7-12,104.0,85.0,74.3,79.6,73.5,68.4,95,72,37,29.92,29.83,4,1,5,0.00
2013-7-13,99.9,80.5,72.7,80.2,73.5,69.4,96,81,43,29.95,29.86,6,1,6,2.83
2013-7-14,101.8,81.4,73.6,79.7,74.3,69.9,96,81,40,30.06,29.92,7,2,8,0.28
2013-7-15,100.9,83.1,73.8,74.2,71.6,67.1,93,72,37,30.09,29.98,8,3,9,0.00
2013-7-16,95.4,80.5,75.4,76.2,72.1,67.0,93,78,40,30.12,30.04,11,4,11,0.08
2013-7-17,98.6,79.4,70.2,77.0,72.6,67.1,97,83,41,30.15,30.04,8,3,11,1.42
2013-7-18,96.6,79.1,72.0,75.8,72.5,69.0,97,83,44,30.12,30.01,7,2,10,0.12
2013-7-19,96.6,79.6,73.2,77.5,73.5,71.8,97,84,48,30.09,30.01,5,2,9,0.59
2013-7-20,103.8,82.3,72.7,80.4,73.7,70.1,96,78,41,30.09,29.98,6,1,6,0.00
2013-7-21,102.7,86.1,73.6,80.5,75.5,71.7,96,74,42,30.12,30.01,4,1,4,0.00
2013-7-22,102.4,87.4,77.0,80.4,75.8,73.6,94,72,43,30.12,30.04,4,1,8,0.00
2013-7-23,100.9,85.8,76.8,80.0,74.6,72.2,92,72,43,30.09,29.95,4,1,6,0.00
2013-7-24,99.5,86.1,78.6,77.4,75.2,72.7,88,72,45,29.98,29.89,5,2,8,0.00
2013-7-25,98.1,85.5,76.8,78.7,76.2,73.1,94,75,46,29.98,29.86,5,2,10,0.11
2013-7-26,101.1,83.6,75.0,83.8,76.2,72.5,97,81,43,30.01,29.95,9,1,10,0.30
2013-7-27,102.6,85.8,76.3,81.2,73.7,67.6,96,72,36,30.01,29.89,6,1,8,0.00
2013-7-28,102.9,85.0,74.7,79.8,73.7,68.7,95,72,41,30.06,29.92,6,1,6,0.00
2013-7-29,104.5,85.7,72.7,79.9,73.4,69.3,96,70,37,30.12,30.01,6,1,6,0.00
2013-7-30,107.6,85.8,74.3,77.7,73.8,69.0,96,72,31,30.18,30.01,6,1,6,0.91
2013-7-31,106.5,86.5,75.2,80.5,73.9,68.5,97,71,33,30.09,29.95,6,2,7,0.00
2013-8-1,101.8,85.3,76.5,77.6,74.0,69.7,90,71,40,30.04,29.92,9,2,9,0.00
2013-8-2,101.8,85.5,73.9,78.6,73.9,70.1,95,71,41,30.04,29.92,5,1,7,0.00
2013-8-3,104.0,87.7,75.2,81.4,74.4,70.8,95,69,37,30.09,29.98,6,1,9,0.00
2013-8-4,103.6,88.2,77.9,80.6,75.7,72.1,91,69,40,30.09,29.95,6,1,8,0.00
2013-8-5,104.2,88.3,78.3,80.4,76.1,72.4,91,70,40,30.04,29.92,6,1,6,0.00
2013-8-6,102.9,83.9,76.5,84.1,76.8,72.6,94,81,45,29.98,29.86,5,1,7,0.79
2013-8-7,104.9,82.7,73.6,81.6,75.2,70.5,96,82,38,29.95,29.86,7,2,10,1.37
2013-8-8,102.7,83.8,41.3,78.5,74.6,31.5,97,78,38,30.01,29.89,9,2,10,2.75
2013-8-9,104.5,81.9,72.1,78.7,73.8,68.7,97,81,35,30.04,29.95,6,2,10,1.61
2013-8-10,104.0,85.0,72.0,78.1,73.8,69.1,97,73,36,30.09,30.01,7,2,9,0.00
2013-8-11,104.0,87.9,76.1,77.6,74.1,65.4,94,67,35,30.15,30.01,7,2,8,0.00
2013-8-12,105.3,87.1,75.0,79.9,76.2,71.2,95,73,37,30.09,29.95,5,1,6,0.09
2013-8-13,106.0,87.3,74.8,78.8,74.9,71.1,96,71,36,30.06,29.89,6,1,6,0.00
2013-8-14,102.4,87.5,75.9,80.7,75.3,71.4,94,70,40,30.01,29.89,6,1,6,0.00
2013-8-15,100.9,85.9,76.6,77.7,74.9,70.0,91,72,39,30.04,29.92,6,2,7,0.00
2013-8-16,104.9,87.5,80.2,76.7,74.3,69.8,83,67,37,30.04,29.95,6,2,13,0.00
2013-8-17,102.4,85.4,74.5,79.8,74.2,67.5,95,73,40,30.06,29.95,8,2,8,0.28
2013-8-18,102.2,83.2,41.3,79.3,75.2,31.5,95,80,38,30.09,29.97,8,2,12,0.62
2013-8-19,104.9,83.5,74.5,79.4,74.4,68.5,96,79,35,30.06,29.92,7,2,11,0.29
2013-8-20,104.9,83.5,73.8,78.7,73.6,67.5,96,76,37,30.06,29.95,7,2,8,0.00
2013-8-21,102.7,83.7,75.0,78.3,74.4,66.8,96,77,37,30.09,29.95,12,3,14,0.25
2013-8-22,103.3,82.3,73.0,79.0,74.9,70.4,96,82,38,30.06,29.95,10,3,15,0.78
2013-8-23,104.4,83.6,75.7,80.7,74.3,69.0,96,77,37,30.01,29.92,7,2,10,0.00
2013-8-24,105.8,84.8,74.5,79.1,74.0,67.6,96,74,36,30.09,29.95,8,2,11,0.00
2013-8-25,95.4,81.6,75.6,76.9,73.7,69.9,93,79,46,30.15,30.04,7,2,10,0.00
2013-8-26,101.1,82.2,75.2,77.4,73.7,67.8,94,79,36,30.12,29.98,10,2,10,0.18
2013-8-27,99.3,82.2,74.1,77.1,72.8,65.1,96,77,36,30.06,29.95,9,2,13,0.29
2013-8-28,100.9,82.5,71.1,77.5,71.9,66.0,97,75,35,30.04,29.95,7,1,7,0.07
2013-8-29,98.4,83.3,71.4,79.2,72.1,66.6,97,73,39,30.04,29.92,8,2,9,0.00
2013-8-30,99.3,82.5,75.6,80.5,74.9,69.8,95,80,43,29.98,29.86,7,1,8,0.84
2013-8-31,101.3,82.5,72.7,79.7,73.0,69.4,96,76,40,29.98,29.86,7,1,8,0.57
2013-9-1,101.1,84.9,74.7,79.9,73.0,67.0,95,71,39,29.98,29.89,6,1,9,0.18
2013-9-2,102.0,84.9,75.9,80.3,73.5,68.6,95,73,37,30.01,29.89,5,1,7,0.00
2013-9-3,102.7,86.3,75.6,79.0,73.2,68.6,94,69,38,30.04,29.89,6,1,8,0.00
2013-9-4,104.9,83.8,75.0,78.1,73.7,67.9,95,76,35,30.06,29.95,8,2,17,0.07
2013-9-5,105.4,84.6,73.4,78.7,74.0,66.9,95,75,35,30.06,29.95,7,2,8,0.39
2013-9-6,101.8,82.1,73.0,82.5,75.3,68.5,96,83,42,30.04,29.92,13,1,16,0.82
2013-9-7,101.8,81.4,70.3,75.0,71.1,66.7,97,75,37,30.01,29.89,7,2,8,0.04
2013-9-8,101.7,82.8,71.2,76.6,71.3,66.5,97,72,35,29.95,29.83,7,2,9,0.00
2013-9-9,102.6,86.0,73.8,75.8,70.3,63.7,94,64,33,30.01,29.89,8,2,10,0.00
2013-9-10,98.2,84.8,74.7,76.0,70.1,60.8,92,65,36,30.06,29.95,11,4,12,0.00
2013-9-11,99.3,84.7,75.4,76.2,70.1,63.4,92,65,33,30.04,29.95,10,4,12,0.00
2013-9-12,103.3,82.2,41.3,79.0,72.9,31.5,94,76,37,30.01,29.83,7,2,10,0.04
2013-9-13,99.3,81.7,71.6,77.3,72.8,70.3,96,77,43,29.89,29.77,6,1,6,0.00
2013-9-14,102.4,83.8,73.0,79.5,73.3,69.6,96,74,40,29.95,29.83,4,1,6,0.00
2013-9-15,100.9,81.9,71.6,78.7,73.1,68.1,95,78,39,30.06,29.95,17,3,26,0.46
2013-9-16,99.7,80.6,72.9,76.4,72.8,67.9,96,81,38,30.04,29.95,9,2,11,0.32
2013-9-17,98.4,81.6,72.7,76.0,72.1,66.4,96,76,38,30.04,29.89,11,3,12,0.00
2013-9-18,97.2,81.5,74.7,76.2,73.1,68.4,92,78,43,30.01,29.92,9,4,13,0.00
2013-9-19,100.6,80.8,73.6,76.7,73.0,67.1,96,80,38,30.04,29.95,8,3,10,0.50
2013-9-20,98.1,82.3,71.4,75.5,69.6,62.1,97,70,38,30.04,29.86,7,2,8,0.00
2013-9-21,97.7,82.6,41.3,74.9,69.1,31.5,93,67,38,29.97,29.74,6,2,9,0.00
2013-9-22,95.9,83.7,77.4,80.9,75.3,72.5,92,77,53,29.83,29.71,7,2,10,0.00
2013-9-23,84.4,78.3,41.3,80.1,75.8,31.5,96,92,38,29.92,29.80,5,1,6,1.44
2013-9-24,82.0,77.6,73.8,77.4,75.1,72.5,97,92,82,29.95,29.80,7,2,10,1.63
2013-9-25,80.1,75.9,69.8,77.5,73.6,68.9,98,93,83,29.95,29.77,8,2,10,2.36
2013-9-26,95.4,82.7,72.5,80.7,75.5,70.0,95,80,54,29.86,29.77,8,2,9,0.00
2013-9-27,94.6,79.2,70.2,72.0,69.1,64.6,95,74,40,29.95,29.83,7,3,10,0.00
2013-9-28,98.1,80.6,41.3,73.4,69.9,31.5,95,73,38,30.01,29.89,9,3,11,0.00
2013-9-29,98.4,81.4,70.9,71.4,68.2,62.0,92,67,36,29.98,29.86,6,3,9,0.00
2013-9-30,99.1,81.5,71.8,74.4,69.9,63.7,95,71,36,29.98,29.89,7,2,10,0.00
2013-10-1,97.2,83.4,72.9,74.4,69.7,62.5,95,67,37,30.06,29.92,9,4,11,0.00
2013-10-2,96.6,82.9,73.4,72.8,69.8,64.9,90,67,39,30.04,29.95,8,4,10,0.00
2013-10-3,98.8,83.2,73.8,74.2,69.7,63.2,90,67,36,30.06,29.95,8,3,10,0.00
2013-10-4,97.9,82.6,41.3,75.3,71.8,31.5,91,73,38,30.06,29.95,6,2,8,0.00
2013-10-5,99.9,82.9,73.2,74.6,70.7,65.6,91,70,36,30.06,29.92,8,3,9,0.00
2013-10-6,99.3,82.3,71.6,76.5,71.2,64.0,96,73,36,29.98,29.83,6,1,8,0.00
2013-10-7,94.1,81.1,73.6,78.2,74.8,71.4,96,82,57,29.86,29.71,7,3,12,0.41
2013-10-8,96.8,82.4,74.5,78.1,73.7,70.2,94,77,46,29.95,29.77,7,2,8,0.00
2013-10-9,87.1,75.8,68.9,70.7,68.0,65.2,89,78,50,30.04,29.92,8,3,10,0.00
2013-10-10,95.2,76.5,65.7,68.3,65.5,61.6,96,72,38,30.04,29.95,6,2,7,0.00
2013-10-11,99.3,77.4,65.1,73.7,64.7,60.8,97,70,36,30.06,29.92,6,1,6,0.00
2013-10-12,93.0,75.7,64.8,71.9,61.8,55.1,97,67,31,30.04,29.95,8,2,9,0.00
2013-10-13,94.1,76.2,62.1,71.4,61.1,55.1,97,65,31,30.06,29.95,5,1,9,0.00
2013-10-14,93.6,76.9,66.6,69.9,64.9,60.1,96,70,35,30.06,29.92,7,2,10,0.00
2013-10-15,91.9,74.7,67.1,71.8,68.2,65.6,96,82,47,30.01,29.89,6,2,9,0.00
2013-10-16,90.0,75.7,66.4,73.1,67.9,62.9,97,79,46,29.98,29.89,5,1,8,0.00
2013-10-17,96.4,78.5,67.3,75.5,68.7,65.3,97,76,40,29.98,29.89,6,1,8,0.00
2013-10-18,97.7,80.0,69.4,75.3,70.1,65.1,97,76,38,29.98,29.89,6,1,9,0.00
2013-10-19,95.0,79.8,71.1,76.9,72.9,69.6,96,82,53,29.95,29.83,4,1,8,0.00
2013-10-20,99.7,81.6,72.7,81.6,71.9,67.0,96,76,40,29.95,29.83,5,1,6,0.00
2013-10-21,97.3,80.5,71.4,77.2,71.5,66.2,95,77,40,30.01,29.89,5,1,6,0.00
2013-10-22,93.2,78.1,70.0,77.8,72.0,69.0,97,84,53,29.95,29.80,7,2,14,0.25
2013-10-23,83.7,74.9,69.1,72.6,61.9,48.7,96,67,38,29.98,29.80,8,3,11,0.00
2013-10-24,76.5,68.2,59.5,57.7,46.5,41.4,75,47,36,30.18,29.98,7,3,10,0.00
2013-10-25,88.3,68.6,55.6,61.6,53.4,48.5,97,64,29,30.21,30.12,7,2,10,0.00
2013-10-26,88.2,69.6,59.4,58.2,54.8,45.9,89,63,25,30.18,30.06,6,2,8,0.00
2013-10-27,87.1,68.2,55.6,62.0,54.2,48.6,97,65,32,30.12,30.04,6,2,8,0.00
2013-10-28,91.4,70.8,57.0,61.0,55.0,47.6,94,62,29,30.18,30.06,7,2,8,0.00
2013-10-29,91.2,75.3,63.9,67.0,62.0,56.5,96,67,36,30.24,30.09,9,3,9,0.00
2013-10-30,93.4,77.2,66.7,68.6,64.4,59.4,94,68,37,30.21,30.06,7,3,10,0.00
2013-10-31,92.8,76.4,64.8,70.2,65.3,61.3,96,72,38,30.09,29.95,7,2,10,0.00
2013-11-1,89.6,77.8,70.2,75.8,72.0,68.2,95,84,60,30.01,29.86,8,2,11,0.46
2013-11-2,78.1,71.6,41.3,74.8,68.1,31.5,97,89,38,29.98,29.80,6,2,8,0.53
2013-11-3,82.4,67.3,57.4,60.5,49.8,40.9,98,59,24,30.09,29.95,8,3,11,0.00
2013-11-4,83.1,70.1,59.5,63.5,55.9,47.8,83,63,40,30.15,30.06,11,4,15,0.00
2013-11-5,86.2,74.8,65.3,67.6,65.1,63.1,94,74,48,30.15,30.01,12,5,15,0.00
2013-11-6,91.6,77.3,70.5,68.5,65.7,58.8,89,70,38,30.09,29.98,7,3,11,0.00
2013-11-7,87.6,74.0,67.3,71.0,66.2,62.9,95,79,48,30.04,29.95,6,2,8,0.00
2013-11-8,84.4,72.0,64.8,68.2,61.4,53.6,96,72,41,30.12,29.98,8,4,10,0.00
2013-11-9,87.8,74.5,64.9,64.9,61.7,59.3,83,66,45,30.15,30.06,9,5,13,0.00
2013-11-10,89.1,74.1,66.2,66.7,63.6,60.7,89,71,43,30.18,30.04,6,2,6,0.00
2013-11-11,88.2,73.7,65.8,66.4,64.0,59.7,94,75,41,30.15,30.04,6,3,8,0.00
2013-11-12,83.3,71.2,64.4,70.1,65.2,52.7,97,83,56,30.09,30.01,6,2,8,0.00
2013-11-13,69.1,62.4,54.3,52.7,46.9,42.5,75,58,47,30.30,30.06,10,6,14,0.00
2013-11-14,79.2,65.0,52.5,57.0,51.4,46.2,89,64,40,30.27,30.12,10,4,13,0.00
2013-11-15,75.0,68.5,63.5,66.1,61.3,56.4,92,78,61,30.18,30.01,7,3,7,0.00
2013-11-16,78.6,72.3,67.3,70.5,67.8,64.7,95,86,74,30.09,30.01,10,3,10,0.06
2013-11-17,91.4,75.4,68.7,72.2,67.0,62.9,93,77,44,30.06,29.95,5,2,7,0.06
2013-11-18,88.2,75.5,66.7,74.0,69.0,65.4,96,82,54,30.04,29.92,5,1,6,0.00
2013-11-19,89.2,74.6,66.9,72.2,68.0,58.0,96,81,55,29.95,29.83,5,2,8,0.00
2013-11-20,88.2,72.7,65.1,71.5,66.4,61.7,91,82,55,30.09,29.95,7,3,9,0.00
2013-11-21,87.1,76.4,71.1,71.0,69.3,66.9,94,80,54,30.15,30.06,9,4,15,0.00
2013-11-22,87.8,76.3,69.6,72.0,67.6,63.5,95,76,48,30.15,30.06,7,3,10,0.00
2013-11-23,90.7,73.3,64.2,69.6,64.3,61.2,96,76,40,30.12,29.98,7,2,7,0.00
2013-11-24,73.2,66.5,59.4,66.7,59.0,49.7,95,77,61,30.21,30.01,9,4,15,0.00
2013-11-25,78.1,68.2,59.4,62.6,55.7,50.3,81,65,47,30.21,30.04,11,6,16,0.00
2013-11-26,82.8,74.0,68.2,73.0,69.8,63.0,96,87,67,30.04,29.74,10,5,15,0.32
2013-11-27,75.2,68.6,62.2,72.7,59.6,49.2,92,74,50,30.18,29.71,13,5,14,0.00
2013-11-28,68.2,60.2,41.3,49.5,46.7,31.5,85,62,36,30.33,29.97,6,3,9,0.00
2013-11-29,75.4,61.4,52.0,55.8,51.1,48.0,94,71,44,30.33,30.24,8,4,10,0.00
2013-11-30,81.0,65.7,55.4,61.4,56.8,49.0,96,75,48,30.30,30.12,8,4,10,0.00
2013-12-1,79.9,64.4,57.9,64.8,60.2,56.8,98,88,57,30.18,29.95,6,2,8,0.00
2013-12-2,73.0,64.3,57.9,62.6,56.7,49.4,98,79,47,29.98,29.83,5,1,7,0.00
2013-12-3,81.9,68.6,56.3,66.1,60.5,53.7,92,77,49,29.98,29.83,6,2,6,0.00
2013-12-4,89.1,73.2,64.8,71.3,65.7,62.1,92,79,46,30.06,29.92,6,1,9,0.00
2013-12-5,87.3,72.5,64.6,67.7,63.9,61.4,92,77,44,30.15,30.04,7,1,7,0.00
2013-12-6,88.7,73.4,64.8,71.7,66.7,62.1,92,81,50,30.15,30.06,8,2,12,0.00
2013-12-7,91.0,73.6,64.9,71.0,65.2,62.2,92,78,41,30.24,30.09,4,1,6,0.00
2013-12-8,90.0,73.3,41.3,70.7,64.5,31.5,92,76,38,30.21,29.97,7,1,7,0.00
2013-12-9,87.1,73.4,64.6,72.0,66.7,61.9,91,81,56,30.15,30.06,8,2,8,0.00
2013-12-10,87.1,73.1,62.8,71.2,66.8,60.1,92,82,57,30.15,30.06,7,2,13,0.00
2013-12-11,88.3,72.2,64.4,67.8,62.8,56.7,89,74,42,30.21,30.12,7,3,8,0.00
2013-12-12,76.6,65.8,55.6,63.7,50.4,30.8,91,62,32,30.30,30.15,7,4,12,0.00
2013-12-13,78.1,64.0,52.2,59.1,49.2,34.0,84,61,36,30.27,30.06,9,4,10,0.00
2013-12-14,85.5,73.9,65.5,70.2,66.4,59.0,88,78,56,30.09,29.92,9,4,15,0.00
2013-12-15,74.7,68.6,59.7,70.4,61.7,53.5,91,80,55,30.12,29.86,8,4,10,0.00
2013-12-16,69.8,57.1,49.1,53.5,44.9,40.4,84,65,39,30.24,30.06,7,3,10,0.00
2013-12-17,76.1,57.4,41.3,49.0,44.0,31.5,89,64,34,30.24,29.97,6,2,8,0.00
2013-12-18,75.7,57.2,45.7,56.2,44.9,40.3,93,69,31,30.27,30.18,7,2,8,0.00
2013-12-19,80.6,60.8,44.2,56.3,48.3,41.2,92,67,36,30.27,30.12,7,2,8,0.00
2013-12-20,88.5,71.0,58.1,65.7,60.7,53.9,89,72,44,30.18,30.06,9,2,12,0.00
2013-12-21,90.0,75.3,41.3,69.9,66.7,31.5,91,76,38,30.09,29.95,8,3,12,0.00
2013-12-22,86.5,75.5,69.3,72.7,68.8,66.5,91,81,59,30.12,30.01,9,3,11,0.00
2013-12-23,86.5,75.1,68.0,73.6,69.6,65.0,91,84,63,30.15,30.06,8,3,13,0.00
2013-12-24,72.5,64.1,52.9,69.1,48.7,31.2,90,61,33,30.24,30.06,8,5,12,0.00
2013-12-25,79.0,62.3,48.2,55.6,45.9,31.1,72,56,43,30.24,30.09,8,4,12,0.00
2013-12-26,82.9,68.3,60.3,60.7,57.5,52.6,87,70,38,30.18,30.06,6,3,7,0.00
2013-12-27,72.3,66.0,61.7,65.1,60.7,56.5,88,83,75,30.21,30.09,9,4,12,0.00
2013-12-28,81.3,71.8,65.5,68.3,65.6,62.1,90,82,62,30.18,29.95,8,4,10,0.00
2013-12-29,76.5,70.1,62.1,72.0,66.4,59.1,91,88,83,30.01,29.86,9,3,10,0.91
2013-12-30,71.6,63.8,60.8,60.9,58.5,55.6,91,83,65,30.18,29.95,6,2,6,0.00
2013-12-31,70.7,64.5,60.6,55.6,49.6,46.2,82,60,44,30.27,30.12,7,3,10,0.00
2014-1-1,64.2,62.1,59.4,61.0,57.4,48.7,91,85,61,30.21,30.04,7,4,9,0.12
2014-1-2,80.4,68.7,61.0,72.0,64.8,54.1,91,88,75,30.04,29.83,9,3,13,0.79